Time;durP1;ratioP1;P1;durP2;ratioP2;P2;SDS_P1;SDS_P2;PMS_P1;PMS_P2;Temp;Humidity;BMP_temperature;BMP_pressure;BME280_temperature;BME280_humidity;BME280_pressure;Samples;Min_cycle;Max_cycle;Signal;HPM_P1;HPM_P2
2023/04/15 00:01:21;;;;;;;1.70;1.25;;;8.20;99.90;;;;;;4995808;28;20062;-53
2023/04/15 00:03:50;;;;;;;1.60;1.08;;;8.30;99.90;;;;;;4994493;28;20029;-53
2023/04/15 00:06:15;;;;;;;3.15;1.38;;;8.30;99.90;;;;;;4994528;28;20401;-53
2023/04/15 00:08:41;;;;;;;3.03;1.73;;;8.20;99.90;;;;;;4994308;28;20026;-53
2023/04/15 00:11:07;;;;;;;1.13;1.10;;;8.20;99.90;;;;;;5004891;28;20096;-54
2023/04/15 00:13:33;;;;;;;1.20;1.10;;;;;;;;;;5008630;28;20041;-53
2023/04/15 00:16:00;;;;;;;1.35;0.93;;;7.70;99.90;;;;;;5011020;28;20421;-53
2023/04/15 00:18:26;;;;;;;2.60;2.13;;;7.80;99.90;;;;;;5007528;28;20121;-53
2023/04/15 00:20:52;;;;;;;3.13;2.00;;;8.20;99.90;;;;;;4991946;28;20098;-54
2023/04/15 00:23:18;;;;;;;2.60;1.75;;;8.50;99.90;;;;;;4992664;28;20413;-53
2023/04/15 00:25:43;;;;;;;2.88;2.63;;;8.80;99.90;;;;;;4992034;28;20038;-54
2023/04/15 00:28:10;;;;;;;1.50;1.35;;;;;;;;;;4992088;28;20086;-53
2023/04/15 00:30:36;;;;;;;2.78;2.30;;;;;;;;;;4992591;28;20038;-53
2023/04/15 00:33:02;;;;;;;5.72;3.58;;;;;;;;;;4962337;28;20533;-54
2023/04/15 00:35:31;;;;;;;3.58;2.50;;;;;;;;;;4992460;28;20127;-53
2023/04/15 00:37:57;;;;;;;2.40;2.13;;;;;;;;;;4991603;28;20046;-53
2023/04/15 00:40:23;;;;;;;2.38;1.83;;;;;;;;;;4991781;28;20108;-53
2023/04/15 00:42:49;;;;;;;1.75;1.33;;;;;;;;;;4993493;28;20145;-54
2023/04/15 00:45:16;;;;;;;2.13;1.40;;;;;;;;;;4993849;28;20038;-53
2023/04/15 00:47:42;;;;;;;2.10;1.30;;;;;;;;;;4995895;28;20025;-53
2023/04/15 00:50:09;;;;;;;1.30;1.20;;;7.90;99.90;;;;;;4993350;28;20057;-53
2023/04/15 00:52:35;;;;;;;2.28;1.40;;;;;;;;;;4994316;28;20030;-53
2023/04/15 00:55:03;;;;;;;5.78;1.42;;;7.80;99.90;;;;;;4993668;28;20039;-53
2023/04/15 00:57:29;;;;;;;2.25;1.15;;;7.50;99.90;;;;;;4994216;28;20434;-53
2023/04/15 00:59:56;;;;;;;2.35;1.23;;;7.40;99.90;;;;;;4993557;28;20034;-53
2023/04/15 01:02:22;;;;;;;1.42;0.98;;;7.40;99.90;;;;;;4993495;28;20039;-53
2023/04/15 01:04:48;;;;;;;0.95;0.93;;;7.30;99.90;;;;;;4993487;28;20479;-53
2023/04/15 01:07:14;;;;;;;1.05;0.95;;;6.90;99.90;;;;;;4994379;28;20031;-53
2023/04/15 01:09:41;;;;;;;1.02;0.93;;;6.90;99.90;;;;;;4990946;28;20553;-53
2023/04/15 01:12:09;;;;;;;1.75;1.02;;;6.90;99.90;;;;;;4992984;28;20106;-53
2023/04/15 01:14:35;;;;;;;1.05;0.95;;;7.00;99.90;;;;;;4972597;28;20050;-53
2023/04/15 01:17:01;;;;;;;1.17;1.08;;;6.70;99.90;;;;;;4993206;28;20094;-53
2023/04/15 01:19:27;;;;;;;1.02;1.02;;;6.90;99.90;;;;;;4993166;28;20038;-53
2023/04/15 01:21:53;;;;;;;2.22;1.70;;;7.20;99.90;;;;;;4993793;28;20053;-53
2023/04/15 01:24:20;;;;;;;2.70;1.17;;;7.40;99.90;;;;;;4993309;28;20516;-53
2023/04/15 01:26:46;;;;;;;0.65;0.65;;;7.10;99.90;;;;;;4993254;28;20390;-54
2023/04/15 01:29:12;;;;;;;1.42;1.33;;;6.90;99.90;;;;;;4995116;28;20035;-54
2023/04/15 01:31:38;;;;;;;1.15;1.05;;;6.90;99.90;;;;;;5012795;28;20029;-54
2023/04/15 01:34:04;;;;;;;2.47;1.15;;;7.10;99.90;;;;;;5010486;28;20389;-53
2023/04/15 01:36:30;;;;;;;1.40;1.00;;;7.50;99.90;;;;;;5003107;28;20050;-53
2023/04/15 01:38:56;;;;;;;1.02;1.02;;;7.70;99.90;;;;;;4993806;28;20026;-55
2023/04/15 01:41:26;;;;;;;1.90;1.02;;;7.50;99.90;;;;;;4993325;28;20026;-53
2023/04/15 01:43:52;;;;;;;2.92;1.40;;;7.50;99.90;;;;;;4989398;28;20532;-53
2023/04/15 01:46:18;;;;;;;1.63;1.52;;;7.80;99.90;;;;;;4967585;28;20035;-53
2023/04/15 01:48:45;;;;;;;1.35;1.10;;;7.70;99.90;;;;;;4967252;28;20522;-53
2023/04/15 01:51:10;;;;;;;0.52;0.52;;;7.20;99.90;;;;;;4971186;28;20041;-53
2023/04/15 01:53:36;;;;;;;1.35;1.25;;;7.10;99.90;;;;;;4971456;28;20039;-53
2023/04/15 01:56:03;;;;;;;0.90;0.90;;;7.20;99.90;;;;;;4971372;28;20082;-53
2023/04/15 01:58:29;;;;;;;1.85;1.05;;;7.50;99.90;;;;;;4947044;28;20046;-53
2023/04/15 02:00:55;;;;;;;1.30;1.00;;;7.30;99.90;;;;;;4990753;28;20034;-53
2023/04/15 02:03:21;;;;;;;4.85;1.50;;;7.60;99.90;;;;;;4978089;28;20039;-53
2023/04/15 02:05:46;;;;;;;1.15;0.88;;;7.70;99.90;;;;;;4943223;28;20035;-53
2023/04/15 02:08:12;;;;;;;0.95;0.95;;;7.40;99.90;;;;;;4971923;28;20031;-54
2023/04/15 02:10:38;;;;;;;1.33;1.23;;;7.40;99.90;;;;;;4971218;28;20043;-53
2023/04/15 02:13:04;;;;;;;0.75;0.75;;;7.40;99.90;;;;;;4982155;28;20117;-53
2023/04/15 02:15:29;;;;;;;2.08;1.42;;;7.20;99.90;;;;;;5005737;28;20068;-53
2023/04/15 02:17:55;;;;;;;2.55;0.90;;;7.20;99.90;;;;;;5012705;28;20528;-53
2023/04/15 02:20:22;;;;;;;0.82;0.82;;;7.20;99.90;;;;;;4997479;28;20042;-53
2023/04/15 02:22:48;;;;;;;2.05;1.13;;;7.00;99.90;;;;;;4995725;28;20101;-53
2023/04/15 02:25:15;;;;;;;1.40;1.20;;;7.20;99.90;;;;;;5001814;28;20133;-53
2023/04/15 02:27:42;;;;;;;1.45;1.00;;;7.10;99.90;;;;;;4997083;28;20373;-52
2023/04/15 02:30:08;;;;;;;1.25;0.95;;;6.90;99.90;;;;;;4996150;28;20062;-53
2023/04/15 02:32:33;;;;;;;1.45;1.30;;;6.90;99.90;;;;;;4994360;28;20042;-52
2023/04/15 02:35:07;;;;;;;1.35;1.25;;;6.80;99.90;;;;;;4996318;28;20041;-52
2023/04/15 02:37:39;;;;;;;0.73;0.73;;;6.70;99.90;;;;;;4996025;28;20037;-53
2023/04/15 02:40:08;;;;;;;1.75;1.33;;;6.70;99.90;;;;;;5001098;28;20044;-53
2023/04/15 02:42:34;;;;;;;0.38;0.38;;;6.70;99.90;;;;;;4998250;28;20034;-52
2023/04/15 02:44:59;;;;;;;1.42;0.65;;;6.30;99.90;;;;;;5005748;28;20026;-53
2023/04/15 02:47:25;;;;;;;1.05;1.05;;;6.20;99.90;;;;;;4994035;28;20072;-53
2023/04/15 02:49:51;;;;;;;2.20;1.33;;;6.10;99.90;;;;;;4996634;28;20470;-53
2023/04/15 02:52:17;;;;;;;0.65;0.65;;;6.00;99.90;;;;;;4998303;28;20030;-53
2023/04/15 02:54:43;;;;;;;0.30;0.30;;;;;;;;;;4996009;28;20030;-53
2023/04/15 02:57:10;;;;;;;2.90;0.80;;;;;;;;;;4996179;28;20038;-54
2023/04/15 02:59:36;;;;;;;0.47;0.47;;;6.10;99.90;;;;;;5015642;28;20034;-53
2023/04/15 03:02:02;;;;;;;0.70;0.65;;;5.80;99.90;;;;;;4994466;28;20053;-53
2023/04/15 03:04:29;;;;;;;0.70;0.70;;;5.80;99.90;;;;;;5007450;28;20038;-53
2023/04/15 03:06:55;;;;;;;1.45;0.60;;;6.00;99.90;;;;;;4998432;28;20112;-53
2023/04/15 03:09:21;;;;;;;1.23;0.60;;;6.00;99.90;;;;;;4993470;28;20065;-52
2023/04/15 03:11:47;;;;;;;0.35;0.35;;;6.00;99.90;;;;;;5002680;28;20601;-52
2023/04/15 03:14:12;;;;;;;0.20;0.20;;;5.90;99.90;;;;;;5013670;28;20030;-52
2023/04/15 03:16:38;;;;;;;0.40;0.40;;;5.70;99.90;;;;;;5012395;28;20161;-52
2023/04/15 03:19:04;;;;;;;0.63;0.63;;;5.80;99.90;;;;;;5001350;28;20403;-53
2023/04/15 03:21:30;;;;;;;0.38;0.38;;;5.90;99.90;;;;;;4991360;28;20126;-53
2023/04/15 03:23:56;;;;;;;0.40;0.40;;;5.90;99.90;;;;;;4993868;28;20030;-53
2023/04/15 03:26:29;;;;;;;2.90;0.85;;;5.80;99.90;;;;;;4993142;28;20465;-52
2023/04/15 03:28:56;;;;;;;0.47;0.43;;;5.80;99.90;;;;;;4992879;28;20034;-52
2023/04/15 03:31:22;;;;;;;0.60;0.35;;;5.80;99.90;;;;;;4993189;28;20038;-55
2023/04/15 03:33:48;;;;;;;0.77;0.77;;;5.80;99.90;;;;;;4990703;28;20068;-52
2023/04/15 03:36:14;;;;;;;0.32;0.32;;;5.30;99.90;;;;;;4985740;28;20047;-53
2023/04/15 03:38:40;;;;;;;2.55;1.20;;;5.80;99.90;;;;;;4973138;28;20038;-53
2023/04/15 03:41:06;;;;;;;0.50;0.50;;;5.80;99.90;;;;;;4957470;28;20601;-53
2023/04/15 03:43:32;;;;;;;0.70;0.70;;;5.80;99.90;;;;;;4973332;28;20392;-52
2023/04/15 03:45:58;;;;;;;0.38;0.38;;;5.80;99.90;;;;;;4974209;28;20035;-53
2023/04/15 03:48:24;;;;;;;1.35;0.50;;;;;;;;;;4989628;28;20498;-53
2023/04/15 03:50:50;;;;;;;0.57;0.55;;;;;;;;;;4973305;28;20074;-53
2023/04/15 03:53:16;;;;;;;0.60;0.60;;;;;;;;;;4976827;28;20050;-53
2023/04/15 03:55:43;;;;;;;0.40;0.40;;;;;;;;;;4973115;28;20030;-53
2023/04/15 03:58:11;;;;;;;0.50;0.50;;;;;;;;;;4972981;28;20619;-53
2023/04/15 04:00:38;;;;;;;0.60;0.60;;;6.10;99.90;;;;;;4973038;28;20027;-54
2023/04/15 04:03:04;;;;;;;2.30;1.02;;;6.00;99.90;;;;;;4974266;28;20134;-53
2023/04/15 04:05:29;;;;;;;1.45;0.82;;;5.80;99.90;;;;;;4995672;28;20432;-52
2023/04/15 04:07:55;;;;;;;0.45;0.35;;;5.80;99.90;;;;;;4997791;28;20505;-52
2023/04/15 04:10:21;;;;;;;1.23;1.00;;;5.60;99.90;;;;;;4995147;28;20113;-53
2023/04/15 04:12:47;;;;;;;0.80;0.80;;;5.60;99.90;;;;;;4996721;28;20472;-53
2023/04/15 04:15:13;;;;;;;0.98;0.77;;;5.50;99.90;;;;;;4996000;28;20041;-53
2023/04/15 04:17:38;;;;;;;0.73;0.40;;;5.50;99.90;;;;;;4963879;28;20058;-52
2023/04/15 04:20:05;;;;;;;1.10;0.93;;;5.60;99.90;;;;;;4995549;28;20062;-53
2023/04/15 04:22:31;;;;;;;0.50;0.50;;;5.50;99.90;;;;;;5006542;28;20038;-53
2023/04/15 04:24:58;;;;;;;0.30;0.30;;;5.50;99.90;;;;;;5009942;28;20081;-52
2023/04/15 04:27:25;;;;;;;0.68;0.50;;;5.50;99.90;;;;;;5004223;28;20038;-53
2023/04/15 04:29:50;;;;;;;0.47;0.47;;;5.70;99.90;;;;;;4994879;28;20038;-53
2023/04/15 04:32:16;;;;;;;0.98;0.55;;;5.60;99.90;;;;;;5009858;28;20474;-52
2023/04/15 04:34:42;;;;;;;0.95;0.70;;;5.80;99.90;;;;;;4991231;28;20044;-53
2023/04/15 04:37:07;;;;;;;0.73;0.68;;;6.10;99.90;;;;;;4979494;28;20046;-53
2023/04/15 04:39:33;;;;;;;0.30;0.30;;;6.00;99.90;;;;;;4994707;28;20038;-53
2023/04/15 04:42:00;;;;;;;0.65;0.47;;;5.90;99.90;;;;;;5000742;28;20076;-52
2023/04/15 04:44:26;;;;;;;1.27;0.73;;;6.10;99.90;;;;;;4974896;28;20042;-53
2023/04/15 04:46:51;;;;;;;1.02;0.82;;;6.00;99.90;;;;;;4991648;28;20042;-53
2023/04/15 04:49:17;;;;;;;0.85;0.75;;;6.10;99.90;;;;;;4994311;28;20037;-53
2023/04/15 04:51:43;;;;;;;0.50;0.50;;;6.30;99.90;;;;;;4993706;28;20133;-53
2023/04/15 04:54:08;;;;;;;1.83;1.00;;;6.10;99.90;;;;;;4996312;28;20057;-53
2023/04/15 04:56:34;;;;;;;0.50;0.50;;;6.20;99.90;;;;;;4996338;28;20041;-52
2023/04/15 04:59:00;;;;;;;0.63;0.63;;;6.20;99.90;;;;;;4997489;28;20033;-53
2023/04/15 05:01:26;;;;;;;0.85;0.73;;;6.50;99.90;;;;;;5005088;28;20022;-53
2023/04/15 05:03:52;;;;;;;0.60;0.60;;;6.70;99.90;;;;;;4967526;28;20041;-53
2023/04/15 05:06:18;;;;;;;0.85;0.55;;;6.80;99.90;;;;;;4968105;28;20505;-53
2023/04/15 05:08:45;;;;;;;2.17;1.40;;;;;;;;;;4993480;28;20026;-53
2023/04/15 05:11:11;;;;;;;1.58;1.02;;;7.30;99.90;;;;;;5001303;28;20117;-53
2023/04/15 05:13:38;;;;;;;1.75;1.30;;;;;;;;;;4994035;28;20109;-53
2023/04/15 05:16:05;;;;;;;0.57;0.57;;;7.70;99.90;;;;;;4993025;28;20462;-53
2023/04/15 05:18:30;;;;;;;1.65;1.08;;;7.90;99.90;;;;;;4963649;28;20048;-53
2023/04/15 05:20:57;;;;;;;3.92;0.80;;;7.90;99.90;;;;;;5007199;28;20029;-53
2023/04/15 05:23:23;;;;;;;0.80;0.75;;;7.90;99.90;;;;;;5011115;28;20026;-54
2023/04/15 05:25:48;;;;;;;0.63;0.63;;;8.00;99.90;;;;;;5008136;28;20030;-53
2023/04/15 05:28:14;;;;;;;1.10;1.00;;;;;;;;;;5007573;28;20440;-53
2023/04/15 05:30:40;;;;;;;0.63;0.63;;;;;;;;;;4961894;28;20042;-54
2023/04/15 05:33:06;;;;;;;1.08;0.52;;;;;;;;;;5005220;28;20065;-54
2023/04/15 05:35:33;;;;;;;0.88;0.57;;;;;;;;;;4960879;28;20034;-54
2023/04/15 05:37:59;;;;;;;0.80;0.80;;;;;;;;;;5007991;28;20034;-54
2023/04/15 05:40:26;;;;;;;1.58;0.85;;;;;;;;;;5007576;28;20056;-54
2023/04/15 05:42:52;;;;;;;0.80;0.60;;;;;;;;;;5007670;28;20057;-55
2023/04/15 05:45:18;;;;;;;0.60;0.60;;;;;;;;;;5005880;28;20109;-54
2023/04/15 05:47:44;;;;;;;0.88;0.88;;;;;;;;;;4976251;28;20069;-54
2023/04/15 05:50:10;;;;;;;0.50;0.50;;;;;;;;;;5007352;28;20022;-54
2023/04/15 05:52:36;;;;;;;1.25;1.10;;;;;;;;;;4989432;28;20504;-54
2023/04/15 05:55:02;;;;;;;0.65;0.65;;;;;;;;;;5005406;28;20054;-53
2023/04/15 05:57:28;;;;;;;0.15;0.15;;;;;;;;;;5010161;28;20041;-54
2023/04/15 05:59:56;;;;;;;0.38;0.38;;;;;;;;;;4975783;28;20034;-53
2023/04/15 06:02:22;;;;;;;0.70;0.70;;;;;;;;;;5010432;28;20390;-54
2023/04/15 06:04:48;;;;;;;0.65;0.65;;;;;;;;;;5005110;28;20462;-53
2023/04/15 06:07:14;;;;;;;0.65;0.65;;;;;;;;;;4996657;28;20397;-53
2023/04/15 06:09:40;;;;;;;1.38;0.50;;;;;;;;;;4999574;28;20119;-53
2023/04/15 06:12:10;;;;;;;0.55;0.55;;;;;;;;;;4978068;28;20086;-53
2023/04/15 06:14:37;;;;;;;0.82;0.47;;;;;;;;;;4996507;28;20049;-53
2023/04/15 06:17:03;;;;;;;1.17;0.63;;;;;;;;;;4996471;28;20413;-54
2023/04/15 06:19:29;;;;;;;0.82;0.75;;;;;;;;;;4997074;28;20026;-52
2023/04/15 06:21:55;;;;;;;4.75;0.95;;;10.50;99.90;;;;;;4996836;28;20490;-52
2023/04/15 06:24:21;;;;;;;3.50;1.02;;;10.80;99.90;;;;;;4998101;28;20069;-51
2023/04/15 06:26:47;;;;;;;1.02;0.93;;;11.00;99.90;;;;;;5007201;28;20496;-52
2023/04/15 06:29:13;;;;;;;1.00;0.80;;;11.20;99.90;;;;;;5010916;28;20477;-51
2023/04/15 06:31:38;;;;;;;0.52;0.52;;;11.40;99.90;;;;;;4955451;28;20043;-52
2023/04/15 06:34:04;;;;;;;0.20;0.20;;;11.40;99.90;;;;;;4964317;28;20094;-52
2023/04/15 06:36:31;;;;;;;0.10;0.10;;;11.30;99.90;;;;;;4957882;28;20050;-52
2023/04/15 06:38:57;;;;;;;0.30;0.30;;;11.30;99.90;;;;;;4962083;28;20043;-52
2023/04/15 06:41:22;;;;;;;0.20;0.20;;;11.10;99.90;;;;;;4956048;28;20035;-52
2023/04/15 06:43:48;;;;;;;0.30;0.30;;;11.20;99.90;;;;;;4966478;28;20039;-52
2023/04/15 06:46:14;;;;;;;0.70;0.63;;;11.30;99.90;;;;;;4939121;28;20050;-51
2023/04/15 06:48:40;;;;;;;0.70;0.70;;;11.50;99.90;;;;;;4955182;28;20031;-51
2023/04/15 06:51:05;;;;;;;0.73;0.40;;;11.60;99.90;;;;;;4939941;29;20082;-52
2023/04/15 06:53:31;;;;;;;1.48;0.55;;;11.80;99.90;;;;;;4956925;28;20075;-52
2023/04/15 06:55:57;;;;;;;1.75;1.13;;;11.90;99.90;;;;;;4954609;28;20503;-52
2023/04/15 06:58:23;;;;;;;0.28;0.28;;;;;;;;;;4939265;28;20044;-52
2023/04/15 07:00:49;;;;;;;0.28;0.28;;;12.40;99.90;;;;;;4968370;28;20073;-52
2023/04/15 07:03:14;;;;;;;0.40;0.40;;;12.50;99.90;;;;;;5002534;28;20062;-52
2023/04/15 07:05:40;;;;;;;0.93;0.57;;;12.60;99.90;;;;;;4996145;28;20030;-52
2023/04/15 07:08:06;;;;;;;1.05;0.70;;;12.70;99.90;;;;;;4992759;28;20089;-52
2023/04/15 07:10:33;;;;;;;0.50;0.50;;;12.70;99.90;;;;;;5001499;28;20030;-53
2023/04/15 07:12:59;;;;;;;0.40;0.40;;;12.80;99.90;;;;;;5011445;28;20556;-52
2023/04/15 07:15:25;;;;;;;0.20;0.20;;;12.90;99.90;;;;;;4996264;28;20158;-52
2023/04/15 07:17:51;;;;;;;0.75;0.65;;;12.80;99.90;;;;;;4995413;28;20138;-51
2023/04/15 07:20:17;;;;;;;0.40;0.40;;;13.10;99.90;;;;;;4995657;28;20109;-52
2023/04/15 07:22:43;;;;;;;0.47;0.47;;;13.00;99.90;;;;;;4995818;28;20045;-52
2023/04/15 07:25:09;;;;;;;1.58;0.43;;;;;;;;;;5003901;28;20038;-51
2023/04/15 07:27:35;;;;;;;1.05;0.60;;;13.30;99.90;;;;;;4996133;28;20117;-53
2023/04/15 07:30:01;;;;;;;0.68;0.43;;;;;;;;;;5015425;28;20105;-52
2023/04/15 07:32:27;;;;;;;0.35;0.35;;;13.60;99.90;;;;;;4992551;28;20038;-52
2023/04/15 07:34:53;;;;;;;0.10;0.10;;;13.40;99.90;;;;;;5006196;28;20042;-53
2023/04/15 07:37:19;;;;;;;0.20;0.20;;;13.60;99.90;;;;;;4998653;28;20038;-52
2023/04/15 07:39:44;;;;;;;0.50;0.47;;;13.70;99.90;;;;;;4995063;28;20109;-51
2023/04/15 07:42:10;;;;;;;0.30;0.30;;;14.00;99.90;;;;;;4961052;28;20042;-52
2023/04/15 07:44:36;;;;;;;0.43;0.43;;;14.20;99.90;;;;;;4995743;28;20462;-52
2023/04/15 07:47:03;;;;;;;0.50;0.40;;;14.30;99.90;;;;;;5012254;28;20057;-52
2023/04/15 07:49:28;;;;;;;1.80;0.52;;;14.20;99.90;;;;;;4999146;28;20038;-52
2023/04/15 07:51:56;;;;;;;0.88;0.43;;;14.40;99.90;;;;;;5003810;28;20042;-52
2023/04/15 07:54:22;;;;;;;0.52;0.52;;;;;;;;;;4997283;28;20037;-52
2023/04/15 07:56:48;;;;;;;2.38;0.73;;;15.30;99.90;;;;;;4996234;28;20077;-51
2023/04/15 07:59:16;;;;;;;0.63;0.30;;;15.20;99.90;;;;;;4960556;28;20069;-51
2023/04/15 08:01:42;;;;;;;0.50;0.45;;;15.40;99.90;;;;;;4994774;28;20396;-53
2023/04/15 08:04:09;;;;;;;0.50;0.45;;;;;;;;;;4995617;28;20038;-51
2023/04/15 08:06:35;;;;;;;0.32;0.32;;;16.40;99.90;;;;;;4994819;28;20370;-52
2023/04/15 08:09:01;;;;;;;0.73;0.50;;;;;;;;;;4994417;28;20038;-52
2023/04/15 08:11:27;;;;;;;0.50;0.50;;;;;;;;;;5002588;28;20033;-52
2023/04/15 08:13:53;;;;;;;0.70;0.65;;;;;;;;;;5009900;28;20034;-52
2023/04/15 08:16:23;;;;;;;2.15;0.80;;;;;;;;;;4990155;28;20046;-52
2023/04/15 08:18:51;;;;;;;0.30;0.30;;;18.20;99.90;;;;;;4976106;28;20058;-53
2023/04/15 08:21:18;;;;;;;0.20;0.20;;;17.80;99.90;;;;;;5014435;28;20052;-54
2023/04/15 08:23:45;;;;;;;0.20;0.20;;;17.70;99.90;;;;;;4995440;28;20432;-52
2023/04/15 08:26:11;;;;;;;0.40;0.40;;;17.90;99.90;;;;;;4976364;28;20085;-52
2023/04/15 08:28:39;;;;;;;0.70;0.70;;;18.80;99.90;;;;;;4991907;28;20070;-52
2023/04/15 08:31:06;;;;;;;0.47;0.40;;;;;;;;;;4993901;28;20402;-52
2023/04/15 08:33:31;;;;;;;1.40;0.43;;;19.10;98.00;;;;;;4989791;28;20042;-52
2023/04/15 08:35:57;;;;;;;0.30;0.30;;;19.10;98.30;;;;;;4996828;28;20041;-51
2023/04/15 08:38:23;;;;;;;0.30;0.30;;;19.20;98.40;;;;;;5002564;28;20038;-52
2023/04/15 08:40:49;;;;;;;1.42;0.40;;;19.20;96.60;;;;;;4976383;28;20035;-51
2023/04/15 08:43:21;;;;;;;0.65;0.40;;;;;;;;;;4992940;28;20405;-53
2023/04/15 08:45:50;;;;;;;1.30;1.17;;;19.70;99.90;;;;;;4993753;28;20110;-53
2023/04/15 08:48:16;;;;;;;1.05;0.45;;;19.90;95.70;;;;;;4993840;28;20045;-53
2023/04/15 08:50:43;;;;;;;0.30;0.30;;;;;;;;;;4993796;28;20109;-54
2023/04/15 08:53:10;;;;;;;0.88;0.60;;;;;;;;;;4994287;28;20034;-52
2023/04/15 08:55:39;;;;;;;2.22;0.88;;;;;;;;;;4999439;28;20057;-53
2023/04/15 08:58:06;;;;;;;1.80;1.25;;;;;;;;;;4995406;28;20058;-52
2023/04/15 09:00:32;;;;;;;0.38;0.38;;;21.30;96.90;;;;;;4979568;28;20479;-53
2023/04/15 09:02:59;;;;;;;0.28;0.28;;;;;;;;;;4993484;28;20027;-52
2023/04/15 09:05:25;;;;;;;0.30;0.25;;;21.50;95.60;;;;;;4994528;28;20556;-52
2023/04/15 09:07:51;;;;;;;0.32;0.32;;;21.60;94.80;;;;;;5001839;28;20053;-53
2023/04/15 09:10:17;;;;;;;0.68;0.68;;;21.70;92.60;;;;;;5012549;28;20389;-50
2023/04/15 09:12:43;;;;;;;0.20;0.20;;;;;;;;;;5011051;28;20030;-51
2023/04/15 09:15:11;;;;;;;0.40;0.40;;;;;;;;;;4993452;28;20490;-53
2023/04/15 09:17:42;;;;;;;0.47;0.40;;;;;;;;;;5012510;28;20096;-51
2023/04/15 09:20:12;;;;;;;1.25;0.32;;;;;;;;;;4993855;28;20027;-52
2023/04/15 09:22:42;;;;;;;0.50;0.50;;;21.50;99.90;;;;;;5002897;28;20030;-50
2023/04/15 09:25:14;;;;;;;0.50;0.50;;;20.50;89.30;;;;;;4980103;28;20131;-52
2023/04/15 09:27:49;;;;;;;0.22;0.22;;;20.70;91.20;;;;;;4993959;28;20046;-47
2023/04/15 09:30:16;;;;;;;0.20;0.20;;;20.30;91.00;;;;;;4991160;28;20068;-51
2023/04/15 09:32:53;;;;;;;0.30;0.30;;;20.10;91.60;;;;;;5004282;28;20109;-52
2023/04/15 09:35:20;;;;;;;0.43;0.38;;;;;;;;;;4974803;28;20085;-51
2023/04/15 09:37:46;;;;;;;1.00;0.32;;;;;;;;;;4958559;28;20050;-51
2023/04/15 09:40:13;;;;;;;3.15;1.00;;;;;;;;;;5006400;28;20468;-51
2023/04/15 09:42:55;;;;;;;0.20;0.20;;;;;;;;;;4988768;28;20030;-51
2023/04/15 09:45:21;;;;;;;0.40;0.40;;;;;;;;;;4993220;28;20114;-51
2023/04/15 09:47:47;;;;;;;0.35;0.35;;;22.80;90.00;;;;;;5009415;28;20030;-51
2023/04/15 09:50:14;;;;;;;0.47;0.47;;;;;;;;;;5010910;28;20489;-52
2023/04/15 09:52:44;;;;;;;4.28;2.72;;;;;;;;;;4997942;28;20035;-53
2023/04/15 09:55:10;;;;;;;1.52;0.90;;;;;;;;;;4992993;28;20088;-52
2023/04/15 09:57:37;;;;;;;2.78;1.92;;;23.50;88.30;;;;;;4993466;28;20038;-51
2023/04/15 10:00:05;;;;;;;7.35;4.15;;;22.90;92.60;;;;;;5012595;28;20061;-47
2023/04/15 10:02:31;;;;;;;1.55;1.13;;;23.10;88.60;;;;;;4977658;28;20053;-52
2023/04/15 10:04:57;;;;;;;0.85;0.60;;;;;;;;;;5010041;28;20033;-52
2023/04/15 10:07:25;;;;;;;0.45;0.43;;;23.40;92.00;;;;;;5003817;28;20038;-51
2023/04/15 10:09:52;;;;;;;0.47;0.40;;;23.00;91.80;;;;;;5009405;28;20489;-52
2023/04/15 10:12:18;;;;;;;0.35;0.28;;;23.00;91.50;;;;;;4958347;28;20038;-52
2023/04/15 10:14:52;;;;;;;0.50;0.50;;;22.20;85.90;;;;;;5007683;28;20528;-53
2023/04/15 10:17:21;;;;;;;0.40;0.35;;;22.70;86.80;;;;;;5004596;28;20042;-52
2023/04/15 10:19:47;;;;;;;0.28;0.28;;;;;;;;;;5007821;28;20022;-52
2023/04/15 10:22:14;;;;;;;0.98;0.60;;;22.70;99.70;;;;;;5005787;28;20061;-52
2023/04/15 10:24:40;;;;;;;0.45;0.45;;;;;;;;;;5010486;28;20470;-53
2023/04/15 10:27:06;;;;;;;0.65;0.60;;;;;;;;;;5006836;28;20039;-55
2023/04/15 10:29:33;;;;;;;0.10;0.10;;;22.40;85.30;;;;;;5006731;28;20397;-52
2023/04/15 10:31:59;;;;;;;0.50;0.30;;;;;;;;;;5005896;28;20385;-51
2023/04/15 10:34:25;;;;;;;0.45;0.45;;;23.00;84.30;;;;;;5006306;28;20457;-51
2023/04/15 10:36:56;;;;;;;0.30;0.22;;;;;;;;;;5005780;28;20116;-51
2023/04/15 10:39:38;;;;;;;2.13;1.30;;;23.20;97.00;;;;;;5002321;28;20037;-51
2023/04/15 10:42:08;;;;;;;3.58;0.90;;;23.20;96.80;;;;;;4997738;28;20027;-52
2023/04/15 10:44:50;;;;;;;0.40;0.40;;;22.90;96.80;;;;;;5013038;28;20026;-51
2023/04/15 10:47:18;;;;;;;1.42;1.15;;;22.60;82.80;;;;;;5020771;28;20044;-51
2023/04/15 10:49:49;;;;;;;0.47;0.45;;;22.70;85.30;;;;;;5003240;28;20069;-51
2023/04/15 10:52:21;;;;;;;0.43;0.30;;;22.10;83.50;;;;;;4987573;28;20042;-51
2023/04/15 10:54:47;;;;;;;0.40;0.40;;;21.90;87.60;;;;;;4996828;28;20057;-51
2023/04/15 10:57:15;;;;;;;0.30;0.30;;;21.30;90.50;;;;;;4996023;28;20081;-52
2023/04/15 11:00:03;;;;;;;0.40;0.40;;;20.90;84.70;;;;;;4995717;28;20034;-51
2023/04/15 11:02:45;;;;;;;0.35;0.30;;;20.90;84.70;;;;;;4996155;28;20145;-51
2023/04/15 11:05:15;;;;;;;0.45;0.38;;;21.30;82.40;;;;;;4996000;28;20385;-51
2023/04/15 11:07:43;;;;;;;0.17;0.17;;;21.90;85.90;;;;;;5001747;28;20100;-51
2023/04/15 11:10:19;;;;;;;0.40;0.30;;;;;;;;;;5016061;28;20029;-51
2023/04/15 11:12:46;;;;;;;0.45;0.45;;;;;;;;;;5003139;28;20485;-51
2023/04/15 11:15:28;;;;;;;0.38;0.38;;;;;;;;;;4995654;28;20497;-51
2023/04/15 11:17:58;;;;;;;0.38;0.38;;;21.50;99.90;;;;;;4995569;28;20050;-51
2023/04/15 11:20:25;;;;;;;0.30;0.30;;;21.10;82.40;;;;;;4995692;28;20038;-51
2023/04/15 11:22:52;;;;;;;0.20;0.20;;;21.00;82.60;;;;;;4976249;28;20112;-51
2023/04/15 11:25:31;;;;;;;0.73;0.60;;;20.90;84.50;;;;;;4994039;28;20038;-51
2023/04/15 11:27:58;;;;;;;0.80;0.50;;;20.70;85.00;;;;;;4995308;28;20030;-52
2023/04/15 11:30:29;;;;;;;0.32;0.25;;;20.70;84.50;;;;;;4995852;28;20033;-51
2023/04/15 11:32:57;;;;;;;0.47;0.47;;;20.60;84.70;;;;;;4995232;28;20037;-52
2023/04/15 11:35:23;;;;;;;0.30;0.30;;;20.80;87.90;;;;;;4995072;28;20122;-51
2023/04/15 11:37:49;;;;;;;0.45;0.30;;;21.20;90.40;;;;;;4995588;28;20565;-51
2023/04/15 11:40:16;;;;;;;0.45;0.30;;;21.20;87.10;;;;;;4995671;28;20037;-51
2023/04/15 11:42:43;;;;;;;0.52;0.43;;;21.80;85.90;;;;;;4994953;28;20516;-51
2023/04/15 11:45:10;;;;;;;0.80;0.30;;;22.00;84.90;;;;;;4995255;28;20044;-52
2023/04/15 11:47:36;;;;;;;0.50;0.50;;;22.30;86.60;;;;;;5008368;28;20026;-51
2023/04/15 11:50:18;;;;;;;0.20;0.20;;;21.50;84.90;;;;;;5013885;28;20026;-51
2023/04/15 11:52:54;;;;;;;;;;;21.00;85.90;;;;;;5013727;28;20414;-51
2023/04/15 11:55:20;;;;;;;0.65;0.65;;;20.60;85.30;;;;;;4995589;28;20007;-52
2023/04/15 11:57:46;;;;;;;0.43;0.43;;;20.70;86.90;;;;;;4991025;28;20125;-51
2023/04/15 12:00:12;;;;;;;0.85;0.52;;;21.00;86.60;;;;;;4994996;28;20030;-52
2023/04/15 12:02:38;;;;;;;0.45;0.45;;;20.80;84.80;;;;;;4976931;28;20136;-52
2023/04/15 12:05:07;;;;;;;1.15;0.98;;;21.00;86.70;;;;;;4996790;28;20030;-51
2023/04/15 12:07:33;;;;;;;1.35;0.55;;;21.00;86.40;;;;;;5004258;28;20500;-52
2023/04/15 12:09:59;;;;;;;0.80;0.50;;;21.00;85.00;;;;;;5010127;28;20031;-51
2023/04/15 12:12:28;;;;;;;0.45;0.40;;;20.70;85.40;;;;;;5003382;28;20466;-51
2023/04/15 12:14:55;;;;;;;0.47;0.47;;;20.50;85.30;;;;;;4995025;28;20026;-51
2023/04/15 12:17:22;;;;;;;0.50;0.40;;;20.60;86.00;;;;;;4994102;28;20046;-51
2023/04/15 12:19:54;;;;;;;1.20;1.00;;;20.90;85.80;;;;;;5009123;28;20103;-51
2023/04/15 12:22:21;;;;;;;0.43;0.43;;;21.10;85.40;;;;;;4994218;28;20030;-52
2023/04/15 12:24:47;;;;;;;0.88;0.80;;;21.40;86.30;;;;;;4994755;28;20030;-51
2023/04/15 12:27:15;;;;;;;0.43;0.40;;;21.30;86.40;;;;;;4994226;28;20034;-51
2023/04/15 12:29:44;;;;;;;1.48;0.93;;;21.10;86.60;;;;;;4994249;28;20038;-51
2023/04/15 12:32:15;;;;;;;2.72;0.63;;;21.40;87.60;;;;;;4994683;28;20037;-51
2023/04/15 12:34:41;;;;;;;0.20;0.20;;;21.30;86.00;;;;;;5012864;28;20026;-51
2023/04/15 12:37:10;;;;;;;0.47;0.40;;;21.40;84.50;;;;;;5003236;28;20049;-51
2023/04/15 12:39:38;;;;;;;0.88;0.45;;;20.70;83.80;;;;;;4994145;28;20109;-51
2023/04/15 12:42:05;;;;;;;0.30;0.30;;;20.70;84.10;;;;;;4994072;28;20034;-52
2023/04/15 12:44:32;;;;;;;1.98;0.55;;;20.70;84.20;;;;;;4993877;28;20081;-50
2023/04/15 12:46:58;;;;;;;0.38;0.20;;;20.80;85.70;;;;;;4958695;28;20030;-50
2023/04/15 12:49:25;;;;;;;0.32;0.32;;;20.60;84.00;;;;;;4993976;28;20034;-50
2023/04/15 12:52:01;;;;;;;0.50;0.50;;;20.60;85.20;;;;;;4993901;28;20394;-50
2023/04/15 12:54:27;;;;;;;0.10;0.10;;;20.50;84.70;;;;;;5005944;28;20037;-50
2023/04/15 12:56:54;;;;;;;0.45;0.38;;;20.00;88.50;;;;;;4996260;28;20566;-49
2023/04/15 12:59:20;;;;;;;0.65;0.40;;;19.70;91.00;;;;;;4993470;28;20474;-52
2023/04/15 13:01:47;;;;;;;2.35;1.38;;;19.80;88.60;;;;;;4993592;28;20410;-52
2023/04/15 13:04:13;;;;;;;0.25;0.25;;;19.60;87.90;;;;;;4993618;28;20421;-52
2023/04/15 13:06:39;;;;;;;0.70;0.47;;;19.40;86.90;;;;;;4993089;28;20520;-52
2023/04/15 13:09:05;;;;;;;0.22;0.22;;;19.40;88.30;;;;;;4993428;28;20557;-50
2023/04/15 13:11:32;;;;;;;0.25;0.25;;;;;;;;;;4993813;28;20027;-54
2023/04/15 13:14:00;;;;;;;0.20;0.20;;;18.90;84.90;;;;;;4993975;28;20038;-52
2023/04/15 13:16:26;;;;;;;0.10;0.10;;;18.50;95.30;;;;;;4993263;28;20050;-52